Time;durP1;ratioP1;P1;durP2;ratioP2;P2;SDS_P1;SDS_P2;PMS_P1;PMS_P2;Temp;Humidity;BMP_temperature;BMP_pressure;BME280_temperature;BME280_humidity;BME280_pressure;Samples;Min_cycle;Max_cycle;Signal;HPM_P1;HPM_P2
2022/09/01 00:01:34;;;;;;;1.50;0.40;;;26.90;47.30;;;;;;10385943;28;20508;-38
2022/09/01 00:06:39;;;;;;;1.65;0.63;;;26.90;47.40;;;;;;10395555;28;20050;-40
2022/09/01 00:11:44;;;;;;;3.22;0.50;;;26.80;48.00;;;;;;10386422;28;20493;-40
2022/09/01 00:16:45;;;;;;;3.00;0.75;;;26.80;47.40;;;;;;10385640;28;20149;-40
2022/09/01 00:21:49;;;;;;;1.25;0.50;;;26.80;47.50;;;;;;10385647;28;20144;-38
2022/09/01 00:26:50;;;;;;;0.63;0.50;;;26.70;47.50;;;;;;10392034;28;20060;-40
2022/09/01 00:31:52;;;;;;;5.40;0.80;;;26.70;47.50;;;;;;10404097;28;20077;-39
2022/09/01 00:36:56;;;;;;;2.42;0.60;;;26.70;47.60;;;;;;10385999;28;20045;-39
2022/09/01 00:41:58;;;;;;;1.70;0.90;;;26.60;47.60;;;;;;10398906;28;20909;-40
2022/09/01 00:47:00;;;;;;;1.75;0.70;;;26.60;47.60;;;;;;10419346;28;20064;-40
2022/09/01 00:52:07;;;;;;;1.55;0.70;;;26.60;47.70;;;;;;10448260;28;20550;-40
2022/09/01 00:57:11;;;;;;;4.45;0.65;;;26.50;47.70;;;;;;10439470;28;20059;-40
2022/09/01 01:02:14;;;;;;;1.42;0.60;;;26.50;47.70;;;;;;10446147;28;20048;-40
2022/09/01 01:07:17;;;;;;;0.93;0.63;;;26.50;47.80;;;;;;10449888;28;20103;-40
2022/09/01 01:12:20;;;;;;;3.30;0.70;;;26.50;47.90;;;;;;10438915;28;20129;-39
2022/09/01 01:17:23;;;;;;;2.08;0.40;;;26.50;47.90;;;;;;10439911;28;20091;-41
2022/09/01 01:28:12;;;;;;;0.82;0.40;;;26.40;47.90;;;;;;10441459;28;20053;-41
2022/09/01 01:33:13;;;;;;;1.42;0.60;;;26.30;48.00;;;;;;10442733;28;20092;-39
2022/09/01 01:38:15;;;;;;;1.00;0.55;;;26.30;47.90;;;;;;10451714;28;20152;-39
2022/09/01 01:43:21;;;;;;;0.47;0.40;;;26.30;48.00;;;;;;10443796;28;20045;-40
2022/09/01 01:48:23;;;;;;;0.63;0.40;;;26.20;48.10;;;;;;10442103;28;20122;-40
2022/09/01 01:53:25;;;;;;;1.58;0.50;;;26.30;48.10;;;;;;10451245;28;20525;-38
2022/09/01 01:58:31;;;;;;;0.65;0.40;;;26.20;48.10;;;;;;10452173;28;20117;-39
2022/09/01 02:03:37;;;;;;;0.95;0.40;;;26.20;48.20;;;;;;10461900;28;20538;-41
2022/09/01 02:08:40;;;;;;;0.57;0.50;;;26.90;48.80;;;;;;10451427;28;20088;-40
2022/09/01 02:13:45;;;;;;;0.75;0.40;;;26.10;48.20;;;;;;10446291;28;20068;-40
2022/09/01 02:18:48;;;;;;;0.38;0.20;;;26.10;48.30;;;;;;10448807;28;20049;-40
2022/09/01 02:23:56;;;;;;;1.65;0.60;;;26.40;48.50;;;;;;10457904;28;20056;-40
2022/09/01 02:29:03;;;;;;;0.85;0.50;;;26.10;48.40;;;;;;10448338;28;20121;-39
2022/09/01 02:34:09;;;;;;;0.98;0.57;;;26.00;48.40;;;;;;10446371;28;20041;-38
2022/09/01 02:39:11;;;;;;;2.42;0.50;;;26.00;48.50;;;;;;10453436;28;20053;-38
2022/09/01 02:44:15;;;;;;;1.52;0.50;;;26.00;48.50;;;;;;10449089;28;20131;-40
2022/09/01 02:49:24;;;;;;;0.77;0.50;;;25.90;48.40;;;;;;10438431;28;20462;-39
2022/09/01 02:54:27;;;;;;;0.88;0.60;;;25.90;48.50;;;;;;10454307;28;20156;-40
2022/09/01 02:59:30;;;;;;;1.13;0.50;;;25.90;48.60;;;;;;10439954;28;20094;-40
2022/09/01 03:04:33;;;;;;;0.70;0.50;;;26.20;48.80;;;;;;10446012;28;20041;-41
2022/09/01 03:09:35;;;;;;;0.77;0.60;;;25.80;48.50;;;;;;10455204;28;20037;-38
2022/09/01 03:14:38;;;;;;;0.55;0.40;;;25.80;48.50;;;;;;10444611;28;20537;-40
2022/09/01 03:19:43;;;;;;;2.92;0.60;;;25.80;48.60;;;;;;10440357;28;20128;-41
2022/09/01 03:24:44;;;;;;;1.98;0.43;;;25.80;49.20;;;;;;10446256;28;20167;-40
2022/09/01 03:29:48;;;;;;;1.77;0.70;;;25.90;48.70;;;;;;10444007;28;20133;-39
2022/09/01 03:34:50;;;;;;;0.73;0.52;;;25.70;48.60;;;;;;10438553;28;20073;-40
2022/09/01 03:39:51;;;;;;;0.40;0.30;;;25.70;48.70;;;;;;10439638;28;20048;-42
2022/09/01 03:44:55;;;;;;;0.82;0.38;;;25.70;48.70;;;;;;10440549;28;20049;-40
2022/09/01 03:49:58;;;;;;;0.60;0.30;;;25.70;48.70;;;;;;10440723;28;20484;-40
2022/09/01 03:55:00;;;;;;;0.32;0.32;;;25.60;48.70;;;;;;10475060;28;20078;-41
2022/09/01 04:00:06;;;;;;;0.60;0.40;;;25.60;48.60;;;;;;10452470;28;20083;-41
2022/09/01 04:05:08;;;;;;;0.77;0.35;;;25.60;48.70;;;;;;10441912;28;20065;-40
2022/09/01 04:10:10;;;;;;;0.82;0.50;;;25.50;48.70;;;;;;10438199;28;20091;-41
2022/09/01 04:15:15;;;;;;;1.20;0.40;;;25.50;48.70;;;;;;10450005;28;20361;-40
2022/09/01 04:20:19;;;;;;;3.72;0.57;;;25.60;48.70;;;;;;10443755;28;20052;-39
2022/09/01 04:25:24;;;;;;;0.70;0.40;;;25.50;48.70;;;;;;10434786;28;20041;-40
2022/09/01 04:30:30;;;;;;;0.68;0.57;;;25.70;48.90;;;;;;10423085;28;20052;-38
2022/09/01 04:35:32;;;;;;;1.20;0.50;;;25.40;48.70;;;;;;10424606;28;20056;-37
2022/09/01 04:40:37;;;;;;;0.80;0.50;;;25.50;48.80;;;;;;10428968;28;20488;-39
2022/09/01 04:45:41;;;;;;;1.23;0.40;;;25.40;48.70;;;;;;10424659;28;20401;-38
2022/09/01 04:50:43;;;;;;;0.75;0.50;;;25.40;48.70;;;;;;10425226;28;20135;-40
2022/09/01 04:55:46;;;;;;;1.30;0.73;;;25.40;48.80;;;;;;10433344;28;20053;-40
2022/09/01 05:00:51;;;;;;;1.25;0.40;;;25.40;48.80;;;;;;10444310;28;20518;-41
2022/09/01 05:05:53;;;;;;;1.02;0.50;;;25.40;48.80;;;;;;10453400;28;20055;-40
2022/09/01 05:10:55;;;;;;;1.20;0.55;;;25.30;48.70;;;;;;10451968;28;20048;-38
2022/09/01 05:16:06;;;;;;;1.30;0.63;;;25.40;48.70;;;;;;10441373;28;20473;-39
2022/09/01 05:21:09;;;;;;;1.13;0.55;;;25.30;48.70;;;;;;10439072;28;20044;-41
2022/09/01 05:26:15;;;;;;;2.08;0.70;;;25.30;48.90;;;;;;10440951;28;20054;-40
2022/09/01 05:31:19;;;;;;;4.13;0.60;;;25.30;48.80;;;;;;10442731;28;20132;-38
2022/09/01 05:36:22;;;;;;;2.50;0.50;;;25.30;48.80;;;;;;10441771;28;20049;-45
2022/09/01 05:41:25;;;;;;;2.15;0.70;;;25.30;48.80;;;;;;10436225;28;20145;-37
2022/09/01 05:46:28;;;;;;;2.42;0.60;;;25.30;48.70;;;;;;10452068;28;20037;-38
2022/09/01 05:51:35;;;;;;;2.08;0.88;;;25.80;49.10;;;;;;10441548;28;20103;-39
2022/09/01 05:56:39;;;;;;;3.90;0.82;;;25.30;48.60;;;;;;10431685;28;20053;-40
2022/09/01 06:01:43;;;;;;;2.60;0.90;;;25.40;48.70;;;;;;10449071;28;20049;-41
2022/09/01 06:06:48;;;;;;;2.83;0.50;;;26.50;49.40;;;;;;10434379;28;20131;-40
2022/09/01 06:11:50;;;;;;;1.85;0.82;;;25.40;48.60;;;;;;10441592;28;20124;-40
2022/09/01 06:16:55;;;;;;;2.20;1.00;;;25.40;48.70;;;;;;10450192;28;20493;-42
2022/09/01 06:21:56;;;;;;;2.25;0.70;;;25.40;48.60;;;;;;10452890;28;20049;-39
2022/09/01 06:26:58;;;;;;;2.38;0.70;;;25.20;48.40;;;;;;10458371;28;20490;-40
2022/09/01 06:32:02;;;;;;;0.85;0.60;;;25.40;48.40;;;;;;10448830;28;20053;-41
2022/09/01 06:37:04;;;;;;;4.57;0.68;;;25.40;48.30;;;;;;10446456;28;20112;-41
2022/09/01 06:42:08;;;;;;;2.63;1.27;;;25.30;48.30;;;;;;10442108;28;20056;-36
2022/09/01 06:47:11;;;;;;;3.55;0.80;;;25.40;48.10;;;;;;10452246;28;20055;-38
2022/09/01 06:52:14;;;;;;;2.70;0.77;;;25.40;48.00;;;;;;10460277;28;20140;-39
2022/09/01 06:57:16;;;;;;;1.48;0.60;;;25.30;48.40;;;;;;10432366;28;20055;-41
2022/09/01 07:02:19;;;;;;;1.73;0.57;;;25.40;47.90;;;;;;10430839;28;20084;-40
2022/09/01 07:07:21;;;;;;;2.60;0.50;;;25.40;47.90;;;;;;10447392;28;20465;-39
2022/09/01 07:12:23;;;;;;;4.55;0.73;;;25.40;47.80;;;;;;10440979;28;20060;-38
2022/09/01 07:17:29;;;;;;;2.05;1.30;;;25.70;48.00;;;;;;10444803;28;20072;-36
2022/09/01 07:22:31;;;;;;;0.55;0.45;;;26.30;53.80;;;;;;10428195;28;20497;-34
2022/09/01 07:27:33;;;;;;;0.88;0.57;;;25.70;50.70;;;;;;10450039;28;20049;-34
2022/09/01 07:32:38;;;;;;;3.05;0.80;;;25.60;49.20;;;;;;10436053;28;20056;-35
2022/09/01 07:37:40;;;;;;;0.68;0.40;;;25.60;48.70;;;;;;10443197;28;20099;-34
2022/09/01 07:42:42;;;;;;;2.13;0.70;;;25.90;48.60;;;;;;10435134;28;20135;-33
2022/09/01 07:47:45;;;;;;;3.03;1.10;;;25.70;48.00;;;;;;10451617;28;20048;-40
2022/09/01 07:52:48;;;;;;;1.08;0.90;;;25.70;48.50;;;;;;10454827;28;20066;-41
2022/09/01 07:57:51;;;;;;;2.45;0.80;;;25.80;47.80;;;;;;10439043;28;20071;-40
2022/09/01 08:02:54;;;;;;;2.13;0.95;;;25.90;47.60;;;;;;10436700;28;20145;-41
2022/09/01 08:07:56;;;;;;;2.38;0.85;;;26.60;48.80;;;;;;10441916;28;20135;-39
2022/09/01 08:12:58;;;;;;;1.60;0.90;;;25.80;47.70;;;;;;10452369;28;20127;-42
2022/09/01 08:18:01;;;;;;;1.10;0.60;;;25.60;47.70;;;;;;10453938;28;20081;-41
2022/09/01 08:23:03;;;;;;;2.40;0.90;;;26.10;47.00;;;;;;10442728;28;20092;-39
2022/09/01 08:28:06;;;;;;;2.78;1.17;;;25.80;47.40;;;;;;10440864;28;20069;-39
2022/09/01 08:33:10;;;;;;;2.60;0.82;;;25.50;47.60;;;;;;10442963;28;20539;-42
2022/09/01 08:38:12;;;;;;;3.30;1.00;;;25.80;47.20;;;;;;10444527;28;20139;-38
2022/09/01 08:43:24;;;;;;;1.80;0.70;;;25.80;47.40;;;;;;10449578;28;20081;-35
2022/09/01 08:48:36;;;;;;;0.80;0.80;;;25.90;47.40;;;;;;10446725;28;20060;-41
2022/09/01 08:53:43;;;;;;;1.63;1.00;;;26.10;47.00;;;;;;10431210;28;20473;-41
2022/09/01 08:58:45;;;;;;;1.88;0.90;;;25.90;47.30;;;;;;10448700;28;20076;-42
2022/09/01 09:04:03;;;;;;;2.30;0.85;;;26.20;46.90;;;;;;10457413;28;21290;-42
2022/09/01 09:09:07;;;;;;;2.72;1.02;;;26.10;47.30;;;;;;10450860;28;20056;-43
2022/09/01 09:14:22;;;;;;;2.90;1.00;;;26.40;46.60;;;;;;10443733;28;20049;-38
2022/09/01 09:19:29;;;;;;;0.95;0.60;;;26.40;46.40;;;;;;10451168;28;20044;-42
2022/09/01 09:24:46;;;;;;;0.85;0.70;;;26.10;46.90;;;;;;10448168;28;20116;-41
2022/09/01 09:29:51;;;;;;;2.03;1.00;;;26.30;46.90;;;;;;10452415;28;20040;-37
2022/09/01 09:34:54;;;;;;;0.77;0.73;;;26.50;46.10;;;;;;10445341;28;20063;-39
2022/09/01 09:40:09;;;;;;;1.73;0.80;;;26.60;46.20;;;;;;10441695;28;20560;-38
2022/09/01 09:45:23;;;;;;;2.22;0.90;;;27.00;45.40;;;;;;10450906;28;20529;-38
2022/09/01 09:50:28;;;;;;;2.88;1.08;;;27.20;45.30;;;;;;10445029;28;20076;-39
2022/09/01 09:55:30;;;;;;;1.27;1.17;;;27.10;45.40;;;;;;10431448;28;20049;-39
2022/09/01 10:00:34;;;;;;;0.93;0.63;;;26.70;46.20;;;;;;10447723;28;20084;-35
2022/09/01 10:05:40;;;;;;;1.65;0.80;;;26.80;46.00;;;;;;10454478;28;20064;-40
2022/09/01 10:10:45;;;;;;;1.20;0.82;;;26.90;45.70;;;;;;10447531;28;20092;-38
2022/09/01 10:15:49;;;;;;;1.10;0.60;;;27.00;46.50;;;;;;10423612;28;20164;-38
2022/09/01 10:20:58;;;;;;;4.70;0.73;;;27.30;45.40;;;;;;10434507;28;20115;-37
2022/09/01 10:26:09;;;;;;;2.20;0.90;;;27.00;46.00;;;;;;10439916;28;20041;-41
2022/09/01 10:31:11;;;;;;;4.03;1.00;;;27.30;45.20;;;;;;10445783;28;20584;-40
2022/09/01 10:36:15;;;;;;;2.35;0.93;;;27.10;45.50;;;;;;10442785;28;20145;-38
2022/09/01 10:41:49;;;;;;;3.80;0.88;;;27.00;44.90;;;;;;10432043;28;20069;-33
2022/09/01 10:46:52;;;;;;;3.08;1.08;;;27.80;44.20;;;;;;10437035;28;20125;-37
2022/09/01 10:51:57;;;;;;;0.93;0.70;;;27.70;45.60;;;;;;10439511;28;20080;-37
2022/09/01 10:57:00;;;;;;;0.82;0.68;;;27.10;45.70;;;;;;10427961;28;20061;-34
2022/09/01 11:02:16;;;;;;;7.68;1.00;;;26.90;45.70;;;;;;10452195;28;20408;-36
2022/09/01 11:07:39;;;;;;;1.67;0.77;;;27.10;45.60;;;;;;10440437;28;20052;-34
2022/09/01 11:12:52;;;;;;;1.40;0.80;;;27.40;45.00;;;;;;10438358;28;20056;-36
2022/09/01 11:17:58;;;;;;;3.50;0.70;;;27.70;44.50;;;;;;10433025;28;20538;-36
2022/09/01 11:23:04;;;;;;;1.60;1.02;;;27.90;43.90;;;;;;10430259;28;20144;-34
2022/09/01 11:28:35;;;;;;;1.92;0.82;;;28.00;43.70;;;;;;10439232;28;20125;-36
2022/09/01 11:34:00;;;;;;;1.83;0.90;;;28.20;43.40;;;;;;10447097;28;20065;-37
2022/09/01 11:39:25;;;;;;;5.55;0.80;;;28.20;43.10;;;;;;10413822;28;20430;-41
2022/09/01 11:44:30;;;;;;;2.67;1.00;;;28.40;42.70;;;;;;10435503;28;20052;-37
2022/09/01 11:49:36;;;;;;;1.55;0.90;;;28.20;43.40;;;;;;10432757;28;20052;-40
2022/09/01 11:54:45;;;;;;;4.40;1.55;;;28.40;43.10;;;;;;10433583;28;20160;-36
2022/09/01 11:59:47;;;;;;;6.00;1.23;;;28.30;43.30;;;;;;10453553;28;20146;-39
2022/09/01 12:04:50;;;;;;;2.08;1.02;;;28.10;43.50;;;;;;10440162;28;20131;-39
2022/09/01 12:09:53;;;;;;;4.35;0.93;;;28.10;43.70;;;;;;10443675;28;20556;-41
2022/09/01 12:14:58;;;;;;;3.15;1.10;;;28.10;43.50;;;;;;10447400;28;20083;-37
2022/09/01 12:20:27;;;;;;;2.40;1.00;;;28.40;43.70;;;;;;10448911;28;20056;-39
2022/09/01 12:25:32;;;;;;;2.67;1.10;;;28.90;43.10;;;;;;10442433;28;20048;-34
2022/09/01 12:30:38;;;;;;;2.47;0.90;;;28.70;42.80;;;;;;10426719;28;20099;-33
2022/09/01 12:35:41;;;;;;;1.80;1.00;;;29.30;41.30;;;;;;10445728;28;20136;-38
2022/09/01 12:40:45;;;;;;;8.20;0.95;;;29.60;41.70;;;;;;10455111;28;20132;-39
2022/09/01 12:45:47;;;;;;;2.55;0.80;;;29.30;41.50;;;;;;10450452;28;20060;-34
2022/09/01 12:50:50;;;;;;;5.53;0.63;;;29.50;41.20;;;;;;10443103;28;20065;-39
2022/09/01 12:56:06;;;;;;;3.92;0.95;;;29.70;39.30;;;;;;10441163;28;20854;-32
2022/09/01 13:01:08;;;;;;;1.52;0.85;;;29.40;41.90;;;;;;10430413;28;20151;-38
2022/09/01 13:06:10;;;;;;;4.82;1.00;;;29.30;42.40;;;;;;10445477;28;20043;-34
2022/09/01 13:11:18;;;;;;;2.15;1.10;;;30.10;40.20;;;;;;10436806;28;20106;-38
2022/09/01 13:16:20;;;;;;;3.72;0.70;;;30.30;41.30;;;;;;10434724;28;20045;-36
2022/09/01 13:21:22;;;;;;;4.63;0.90;;;30.50;41.10;;;;;;10430290;28;20045;-37
2022/09/01 13:26:25;;;;;;;0.90;0.63;;;31.00;38.00;;;;;;10449108;28;20103;-34
2022/09/01 13:31:28;;;;;;;7.18;0.90;;;31.40;39.50;;;;;;10447419;28;20048;-38
2022/09/01 13:36:30;;;;;;;0.70;0.60;;;31.00;40.00;;;;;;10449143;28;20041;-40
2022/09/01 13:41:33;;;;;;;4.60;0.70;;;31.10;40.10;;;;;;10426044;28;20052;-35
2022/09/01 13:46:35;;;;;;;4.93;0.70;;;31.30;40.40;;;;;;10358298;28;20197;-37
2022/09/01 13:51:37;;;;;;;5.18;1.00;;;31.90;35.80;;;;;;10356429;28;20037;-36
2022/09/01 13:56:40;;;;;;;3.60;1.08;;;31.60;41.80;;;;;;10364994;28;20180;-32
2022/09/01 14:01:42;;;;;;;2.95;1.02;;;32.00;38.80;;;;;;10354016;28;21431;-33
2022/09/01 14:06:45;;;;;;;4.60;1.60;;;32.10;39.10;;;;;;10353584;28;20076;-33
2022/09/01 14:11:49;;;;;;;3.75;1.45;;;31.50;41.30;;;;;;10355616;28;20053;-32
2022/09/01 14:16:51;;;;;;;2.47;1.27;;;31.90;38.40;;;;;;10354526;28;21603;-32
2022/09/01 14:21:53;;;;;;;13.45;5.32;;;32.20;35.10;;;;;;10354177;28;20460;-32
2022/09/01 14:26:56;;;;;;;3.70;1.42;;;33.20;37.70;;;;;;10352644;28;20135;-33
2022/09/01 14:31:58;;;;;;;2.60;1.40;;;32.40;40.70;;;;;;10357040;28;20173;-33
2022/09/01 14:37:00;;;;;;;2.30;1.13;;;32.00;41.40;;;;;;10401159;28;20040;-32
2022/09/01 14:42:05;;;;;;;7.88;1.52;;;32.00;41.20;;;;;;10414376;28;20056;-34
2022/09/01 14:47:08;;;;;;;4.35;1.02;;;32.70;41.30;;;;;;10460862;28;20068;-34
2022/09/01 14:52:13;;;;;;;4.43;1.10;;;33.40;39.80;;;;;;10430160;28;20033;-34
2022/09/01 14:57:16;;;;;;;1.67;0.95;;;33.60;38.30;;;;;;10444200;28;20520;-35
2022/09/01 15:02:18;;;;;;;4.82;1.05;;;32.60;40.30;;;;;;10444438;28;20128;-35
2022/09/01 15:07:20;;;;;;;5.35;1.00;;;33.30;39.20;;;;;;10444469;28;20049;-34
2022/09/01 15:12:23;;;;;;;3.45;1.05;;;33.20;38.20;;;;;;10444982;28;20102;-34
2022/09/01 15:17:25;;;;;;;1.48;1.17;;;33.30;39.00;;;;;;10437015;28;20048;-36
2022/09/01 15:22:27;;;;;;;9.35;0.90;;;32.80;41.10;;;;;;10443470;28;20045;-34
2022/09/01 15:27:31;;;;;;;4.07;1.35;;;32.40;41.90;;;;;;10432492;28;20120;-34
2022/09/01 15:32:32;;;;;;;1.98;1.05;;;32.80;41.60;;;;;;10437215;28;20092;-35
2022/09/01 15:37:34;;;;;;;1.75;0.93;;;32.30;41.40;;;;;;10431151;28;20069;-35
2022/09/01 15:42:38;;;;;;;1.58;0.95;;;32.90;42.30;;;;;;10417467;28;20111;-35
2022/09/01 15:47:40;;;;;;;1.58;1.05;;;33.60;40.90;;;;;;10432321;28;20571;-34
2022/09/01 15:52:49;;;;;;;1.13;0.75;;;32.90;44.40;;;;;;10432488;28;20040;-34
2022/09/01 15:57:53;;;;;;;4.57;0.73;;;32.60;42.10;;;;;;10436465;28;20050;-34
2022/09/01 16:03:00;;;;;;;0.55;0.40;;;32.30;42.40;;;;;;10448277;28;20056;-35
2022/09/01 16:08:05;;;;;;;1.30;0.70;;;33.20;42.20;;;;;;10449484;28;20056;-36
2022/09/01 16:13:09;;;;;;;2.22;0.70;;;33.20;40.00;;;;;;10426427;28;20053;-35
2022/09/01 16:18:31;;;;;;;1.20;0.70;;;32.90;41.90;;;;;;10429764;28;20056;-34
2022/09/01 16:23:39;;;;;;;1.92;0.90;;;33.00;42.30;;;;;;10437214;28;20061;-35
2022/09/01 16:28:47;;;;;;;3.13;0.88;;;33.10;41.70;;;;;;10437424;28;20055;-36
2022/09/01 16:33:53;;;;;;;4.00;0.82;;;33.20;42.40;;;;;;10435135;28;20130;-35
2022/09/01 16:39:02;;;;;;;1.45;0.80;;;33.10;42.50;;;;;;10444038;28;20045;-34
2022/09/01 16:44:17;;;;;;;2.92;1.05;;;33.10;40.30;;;;;;10422630;28;20149;-34
2022/09/01 16:49:26;;;;;;;1.15;0.80;;;33.40;43.90;;;;;;10446965;28;20150;-34
2022/09/01 16:54:38;;;;;;;2.25;1.05;;;33.00;43.60;;;;;;10440984;28;20156;-35
2022/09/01 16:59:51;;;;;;;3.03;1.60;;;32.60;43.30;;;;;;10434708;28;20055;-36
2022/09/01 17:04:58;;;;;;;6.60;1.80;;;32.50;44.60;;;;;;10456045;28;20462;-33
2022/09/01 17:10:04;;;;;;;9.30;2.20;;;32.40;43.40;;;;;;10441727;28;20073;-34
2022/09/01 17:15:11;;;;;;;5.70;2.00;;;32.30;43.60;;;;;;10445953;28;20473;-35
2022/09/01 17:20:15;;;;;;;10.75;2.53;;;32.20;43.50;;;;;;10447699;28;20099;-35
2022/09/01 17:25:27;;;;;;;8.75;3.33;;;32.30;43.70;;;;;;10446621;28;20053;-34
2022/09/01 17:30:34;;;;;;;10.88;3.72;;;32.10;43.40;;;;;;10428462;28;20077;-35
2022/09/01 17:35:42;;;;;;;10.02;3.50;;;32.10;44.00;;;;;;10431382;28;20045;-35
2022/09/01 17:40:55;;;;;;;11.07;3.83;;;32.00;43.20;;;;;;10417703;28;20759;-35
2022/09/01 17:46:06;;;;;;;8.65;3.28;;;32.00;43.20;;;;;;10418528;28;20096;-35
2022/09/01 17:51:15;;;;;;;10.80;3.25;;;31.80;43.30;;;;;;10423451;28;20516;-36
2022/09/01 17:56:28;;;;;;;8.50;2.60;;;31.70;43.10;;;;;;10423376;28;20045;-36
2022/09/01 18:01:37;;;;;;;6.30;2.67;;;31.60;43.20;;;;;;10418760;28;20156;-34
2022/09/01 18:06:48;;;;;;;5.70;2.50;;;31.60;43.20;;;;;;10421872;28;20483;-35
2022/09/01 18:11:53;;;;;;;;;;;31.50;43.20;;;;;;10426162;28;20045;-35
2022/09/01 18:17:02;;;;;;;4.53;2.38;;;31.40;43.30;;;;;;10440149;28;19947;-35
2022/09/01 18:22:09;;;;;;;3.85;1.80;;;31.30;43.40;;;;;;10436194;28;20049;-33
2022/09/01 18:27:11;;;;;;;3.67;1.75;;;31.20;43.30;;;;;;10441874;28;20057;-35
2022/09/01 18:32:27;;;;;;;3.53;1.50;;;31.10;43.30;;;;;;10441635;28;20092;-30
2022/09/01 18:37:37;;;;;;;4.80;1.30;;;31.00;43.30;;;;;;10433682;28;20186;-33
2022/09/01 18:42:47;;;;;;;3.97;1.42;;;30.90;43.30;;;;;;10443355;28;20052;-32
2022/09/01 18:47:58;;;;;;;1.65;0.70;;;30.40;42.90;;;;;;10445041;28;20209;-35
2022/09/01 18:53:11;;;;;;;2.45;0.93;;;30.70;43.20;;;;;;10448914;28;20405;-35
2022/09/01 18:58:24;;;;;;;3.47;1.13;;;30.60;43.20;;;;;;10448575;28;20158;-35
2022/09/01 19:03:32;;;;;;;2.67;0.80;;;30.60;43.40;;;;;;10452117;28;20136;-34
2022/09/01 19:08:47;;;;;;;4.55;0.93;;;30.50;43.50;;;;;;10450705;28;20051;-36
2022/09/01 19:13:59;;;;;;;3.53;1.20;;;30.40;43.40;;;;;;10443260;28;20072;-35
2022/09/01 19:19:10;;;;;;;6.03;0.93;;;30.30;43.40;;;;;;10446846;28;21119;-34
2022/09/01 19:24:20;;;;;;;3.67;1.17;;;30.20;43.30;;;;;;10446084;28;20071;-35
2022/09/01 19:29:27;;;;;;;3.28;0.70;;;30.20;43.40;;;;;;10435211;28;20080;-34
2022/09/01 19:34:36;;;;;;;2.70;1.05;;;30.70;43.80;;;;;;10452038;28;20466;-35
2022/09/01 19:39:42;;;;;;;2.80;0.82;;;30.10;43.50;;;;;;10437716;28;20063;-34
2022/09/01 19:44:55;;;;;;;7.55;1.15;;;29.70;43.20;;;;;;10437736;28;20041;-34
2022/09/01 19:50:08;;;;;;;2.47;1.20;;;29.90;43.40;;;;;;10444544;28;20493;-35
2022/09/01 19:55:16;;;;;;;1.50;0.82;;;29.80;43.30;;;;;;10440706;28;20128;-35
2022/09/01 20:00:24;;;;;;;2.67;1.33;;;29.80;43.40;;;;;;10426889;28;20104;-34
2022/09/01 20:05:34;;;;;;;2.42;1.20;;;29.70;43.40;;;;;;10437186;28;20135;-35
2022/09/01 20:10:48;;;;;;;1.70;1.00;;;29.60;43.30;;;;;;10443058;28;20045;-34
2022/09/01 20:15:56;;;;;;;3.03;1.33;;;29.60;43.30;;;;;;10450176;28;20136;-34
2022/09/01 20:21:02;;;;;;;1.95;1.13;;;29.50;43.30;;;;;;10439324;28;20084;-33
2022/09/01 20:26:09;;;;;;;3.58;1.02;;;29.50;43.40;;;;;;10445602;28;20107;-34
2022/09/01 20:31:16;;;;;;;2.25;1.10;;;29.40;43.40;;;;;;10439773;28;20456;-35
2022/09/01 20:36:27;;;;;;;1.05;0.88;;;29.30;43.90;;;;;;10437636;28;20335;-34
2022/09/01 20:41:34;;;;;;;2.63;1.20;;;29.30;43.40;;;;;;10442130;28;20052;-35
2022/09/01 20:46:37;;;;;;;1.33;0.88;;;29.20;43.50;;;;;;10438844;28;20499;-35
2022/09/01 20:51:45;;;;;;;1.42;0.80;;;29.10;43.40;;;;;;10434032;28;20060;-35
2022/09/01 20:56:55;;;;;;;1.88;1.02;;;29.10;43.50;;;;;;10430121;28;20073;-34
2022/09/01 21:02:06;;;;;;;3.17;1.10;;;29.10;43.60;;;;;;10429986;28;20470;-33
2022/09/01 21:07:15;;;;;;;2.97;1.30;;;29.00;43.70;;;;;;10407038;28;20133;-33
2022/09/01 21:12:28;;;;;;;1.95;1.00;;;29.00;43.90;;;;;;10454088;28;20045;-34
2022/09/01 21:17:39;;;;;;;2.63;1.00;;;28.90;44.70;;;;;;10439973;28;20131;-34
2022/09/01 21:22:43;;;;;;;1.88;1.08;;;28.90;44.20;;;;;;10421436;28;20245;-33
2022/09/01 21:27:50;;;;;;;3.30;1.00;;;28.90;44.40;;;;;;10443568;28;20055;-34
2022/09/01 21:32:53;;;;;;;2.55;0.98;;;28.80;44.40;;;;;;10439156;28;20037;-34
2022/09/01 21:37:56;;;;;;;1.45;0.85;;;28.80;44.60;;;;;;10441933;28;20389;-34
2022/09/01 21:43:01;;;;;;;2.05;0.88;;;28.70;44.50;;;;;;10432800;28;20164;-34
2022/09/01 21:48:03;;;;;;;0.70;0.60;;;28.70;44.50;;;;;;10433123;28;20135;-33
2022/09/01 21:53:07;;;;;;;1.70;0.98;;;28.60;44.50;;;;;;10445259;28;20148;-34
2022/09/01 21:58:10;;;;;;;3.08;0.80;;;28.50;44.50;;;;;;10433771;28;20096;-34
2022/09/01 22:03:12;;;;;;;0.98;0.82;;;28.30;44.40;;;;;;10439902;28;20048;-33
2022/09/01 22:08:16;;;;;;;1.45;0.63;;;28.50;44.60;;;;;;10442471;28;20044;-34
2022/09/01 22:13:19;;;;;;;2.42;0.77;;;28.40;44.60;;;;;;10447791;28;20052;-35
2022/09/01 22:18:22;;;;;;;1.13;0.80;;;28.50;44.80;;;;;;10448547;28;20490;-34
2022/09/01 22:23:25;;;;;;;0.98;0.57;;;28.80;45.00;;;;;;10443605;28;20145;-34
2022/09/01 22:28:27;;;;;;;4.97;0.70;;;28.30;45.30;;;;;;10438563;28;20045;-35
2022/09/01 22:33:30;;;;;;;0.95;0.73;;;28.20;44.70;;;;;;10447582;28;20139;-34
2022/09/01 22:38:34;;;;;;;1.85;0.70;;;28.20;44.80;;;;;;10447422;28;20044;-34
2022/09/01 22:43:36;;;;;;;1.88;0.80;;;28.10;44.80;;;;;;10447475;28;20052;-35
2022/09/01 22:48:37;;;;;;;1.20;0.52;;;28.10;44.90;;;;;;10442700;28;20059;-35
2022/09/01 22:53:43;;;;;;;1.75;1.10;;;28.00;44.90;;;;;;10439255;28;20045;-34
2022/09/01 22:58:45;;;;;;;1.35;0.82;;;28.00;44.90;;;;;;10445310;28;20052;-34
2022/09/01 23:03:47;;;;;;;2.47;0.50;;;27.90;44.80;;;;;;10452969;28;20488;-35
2022/09/01 23:08:51;;;;;;;0.82;0.60;;;27.90;44.90;;;;;;10442627;28;20128;-32
2022/09/01 23:13:53;;;;;;;1.52;0.68;;;27.90;44.90;;;;;;10427478;28;20076;-34
2022/09/01 23:18:56;;;;;;;0.60;0.43;;;27.90;44.90;;;;;;10438749;28;20160;-34
2022/09/01 23:24:00;;;;;;;1.40;0.57;;;27.80;44.80;;;;;;10433669;28;20248;-33
2022/09/01 23:29:02;;;;;;;1.10;0.50;;;27.80;44.90;;;;;;10418446;28;20133;-33
2022/09/01 23:34:06;;;;;;;1.52;0.68;;;28.20;45.20;;;;;;10439559;28;20481;-34
2022/09/01 23:39:10;;;;;;;1.05;0.63;;;27.70;44.90;;;;;;10435119;28;20044;-34
2022/09/01 23:44:12;;;;;;;1.75;0.70;;;27.60;44.80;;;;;;10430303;28;20608;-34
2022/09/01 23:49:16;;;;;;;1.60;0.68;;;27.60;44.80;;;;;;10415665;28;20054;-41
2022/09/01 23:54:19;;;;;;;1.33;0.50;;;27.50;44.80;;;;;;10393629;28;21100;-34
2022/09/01 23:59:21;;;;;;;0.65;0.47;;;28.20;45.30;;;;;;10394014;28;20811;-34
